Time;durP1;ratioP1;P1;durP2;ratioP2;P2;SDS_P1;SDS_P2;PMS_P1;PMS_P2;Temp;Humidity;BMP_temperature;BMP_pressure;BME280_temperature;BME280_humidity;BME280_pressure;Samples;Min_cycle;Max_cycle;Signal;HPM_P1;HPM_P2
2021/03/06 00:01:11;;;;;;;2.05;1.70;;;4.10;48.80;;;;;;4859620;29;20491;-69
2021/03/06 00:03:37;;;;;;;3.58;1.60;;;4.00;48.80;;;;;;4859537;29;20525;-70
2021/03/06 00:06:03;;;;;;;2.72;1.90;;;4.00;48.90;;;;;;4860208;29;20078;-69
2021/03/06 00:08:29;;;;;;;3.00;1.90;;;4.00;48.90;;;;;;4861401;29;20151;-69
2021/03/06 00:10:55;;;;;;;2.65;1.70;;;4.00;48.90;;;;;;4861126;29;20077;-69
2021/03/06 00:13:22;;;;;;;2.92;1.98;;;4.00;48.90;;;;;;4860332;29;20053;-69
2021/03/06 00:15:48;;;;;;;3.05;1.90;;;3.90;48.90;;;;;;4860836;29;20061;-70
2021/03/06 00:18:14;;;;;;;2.58;1.83;;;3.90;49.00;;;;;;4861118;29;20102;-70
2021/03/06 00:20:40;;;;;;;3.92;1.80;;;3.90;49.00;;;;;;4860400;29;20049;-70
2021/03/06 00:23:06;;;;;;;4.00;2.05;;;3.90;49.00;;;;;;4861323;29;20094;-69
2021/03/06 00:25:32;;;;;;;2.53;2.00;;;3.90;49.10;;;;;;4845206;29;20124;-69
2021/03/06 00:27:57;;;;;;;3.00;1.95;;;3.90;49.10;;;;;;4860880;29;20133;-67
2021/03/06 00:30:24;;;;;;;2.67;1.65;;;3.90;49.20;;;;;;4859435;29;20124;-69
2021/03/06 00:32:51;;;;;;;2.00;1.60;;;3.90;49.20;;;;;;4861247;29;20407;-70
2021/03/06 00:35:17;;;;;;;4.75;2.17;;;3.80;49.20;;;;;;4861047;29;20049;-69
2021/03/06 00:37:43;;;;;;;3.15;1.95;;;3.80;49.20;;;;;;4860437;29;20124;-68
2021/03/06 00:40:11;;;;;;;2.90;1.75;;;3.80;49.30;;;;;;4861497;29;20108;-68
2021/03/06 00:42:38;;;;;;;3.28;2.17;;;3.80;49.30;;;;;;4862281;29;20069;-70
2021/03/06 00:45:05;;;;;;;2.47;1.70;;;3.80;49.30;;;;;;4864728;29;20044;-69
2021/03/06 00:47:31;;;;;;;3.30;2.03;;;3.80;49.30;;;;;;4862958;29;20057;-70
2021/03/06 00:49:58;;;;;;;3.33;1.58;;;3.70;49.30;;;;;;4879453;29;20033;-70
2021/03/06 00:52:24;;;;;;;2.50;1.80;;;3.80;49.40;;;;;;4862979;29;20045;-69
2021/03/06 00:54:50;;;;;;;5.30;1.90;;;3.70;49.30;;;;;;4848057;29;20041;-70
2021/03/06 00:57:17;;;;;;;1.65;1.48;;;3.80;49.40;;;;;;4848473;29;20418;-68
2021/03/06 00:59:43;;;;;;;2.03;1.58;;;3.80;49.40;;;;;;4863425;29;20046;-69
2021/03/06 01:02:10;;;;;;;1.85;1.58;;;3.70;49.30;;;;;;4864313;29;20065;-69
2021/03/06 01:04:38;;;;;;;2.20;1.70;;;3.70;49.30;;;;;;4863414;29;20047;-69
2021/03/06 01:07:04;;;;;;;1.60;1.50;;;3.70;49.40;;;;;;4847876;29;20140;-69
2021/03/06 01:09:30;;;;;;;2.90;1.65;;;3.70;49.40;;;;;;4865261;29;20550;-69
2021/03/06 01:11:55;;;;;;;2.40;1.98;;;3.70;49.40;;;;;;4862932;29;20140;-70
2021/03/06 01:14:22;;;;;;;3.33;2.00;;;3.70;49.40;;;;;;4864162;29;20037;-68
2021/03/06 01:16:48;;;;;;;2.13;1.70;;;3.60;49.30;;;;;;4847428;29;20068;-68
2021/03/06 01:19:14;;;;;;;3.95;2.03;;;3.70;49.40;;;;;;4862975;29;20502;-68
2021/03/06 01:21:39;;;;;;;2.45;1.80;;;3.60;49.30;;;;;;4847726;29;20136;-68
2021/03/06 01:24:06;;;;;;;1.98;1.27;;;3.60;49.30;;;;;;4848316;29;20563;-69
2021/03/06 01:26:32;;;;;;;3.45;1.45;;;3.60;49.30;;;;;;4863197;29;20053;-70
2021/03/06 01:28:58;;;;;;;3.97;1.52;;;3.60;49.30;;;;;;4862280;29;20064;-68
2021/03/06 01:31:24;;;;;;;2.60;1.50;;;3.60;49.30;;;;;;4863205;29;20057;-69
2021/03/06 01:33:50;;;;;;;2.47;1.60;;;3.60;49.30;;;;;;4863157;29;20038;-67
2021/03/06 01:36:16;;;;;;;2.15;1.83;;;3.60;49.30;;;;;;4863386;29;20049;-69
2021/03/06 01:38:42;;;;;;;2.03;1.83;;;3.60;49.20;;;;;;4864161;29;20033;-70
2021/03/06 01:41:08;;;;;;;2.53;1.50;;;3.60;49.20;;;;;;4847586;29;20526;-69
2021/03/06 01:43:34;;;;;;;2.17;1.50;;;3.60;49.20;;;;;;4862805;29;20135;-70
2021/03/06 01:45:59;;;;;;;2.05;1.50;;;3.60;49.20;;;;;;4862640;29;20073;-70
2021/03/06 01:48:25;;;;;;;1.88;1.77;;;3.50;49.10;;;;;;4877925;29;20038;-69
2021/03/06 01:50:52;;;;;;;2.97;1.65;;;3.60;49.10;;;;;;4877767;29;20041;-69
2021/03/06 01:53:19;;;;;;;1.75;1.65;;;3.60;49.10;;;;;;4861348;29;20564;-68
2021/03/06 01:55:47;;;;;;;2.08;1.75;;;3.50;49.00;;;;;;4862095;29;20042;-68
2021/03/06 01:58:14;;;;;;;2.30;1.48;;;3.50;49.00;;;;;;4861671;29;20041;-69
2021/03/06 02:00:41;;;;;;;3.13;2.42;;;3.50;49.00;;;;;;4861633;29;20463;-69
2021/03/06 02:03:08;;;;;;;2.50;1.55;;;3.40;49.00;;;;;;4861549;29;20072;-69
2021/03/06 02:05:34;;;;;;;2.05;1.63;;;3.40;48.90;;;;;;4861707;29;20399;-68
2021/03/06 02:08:01;;;;;;;1.67;1.58;;;3.40;48.90;;;;;;4863175;29;20030;-69
2021/03/06 02:10:31;;;;;;;1.45;1.30;;;3.40;48.90;;;;;;4861825;29;20106;-69
2021/03/06 02:13:26;;;;;;;4.07;1.67;;;3.40;49.00;;;;;;4877091;29;20152;-68
2021/03/06 02:16:09;;;;;;;2.33;1.58;;;3.40;49.00;;;;;;4846276;29;20410;-68
2021/03/06 02:18:43;;;;;;;1.90;1.60;;;3.40;49.00;;;;;;4861774;29;20102;-70
2021/03/06 02:21:12;;;;;;;3.78;1.45;;;3.40;49.00;;;;;;4845851;29;20109;-70
2021/03/06 02:23:47;;;;;;;1.58;1.35;;;3.40;49.00;;;;;;4862862;29;20080;-69
2021/03/06 02:26:19;;;;;;;2.30;1.53;;;3.40;49.00;;;;;;4862828;29;20156;-68
2021/03/06 02:29:09;;;;;;;3.15;1.88;;;3.40;49.00;;;;;;4862681;29;20338;-68
2021/03/06 02:31:39;;;;;;;2.38;1.63;;;3.30;48.90;;;;;;4862572;29;20053;-69
2021/03/06 02:34:10;;;;;;;1.83;1.60;;;3.30;48.90;;;;;;4862038;29;20522;-69
2021/03/06 02:36:41;;;;;;;2.35;1.65;;;3.30;48.90;;;;;;4861535;29;20116;-70
2021/03/06 02:39:13;;;;;;;2.45;1.80;;;3.30;48.90;;;;;;4847762;29;20101;-70
2021/03/06 02:41:40;;;;;;;2.22;1.50;;;3.30;48.90;;;;;;4863973;29;20065;-69
2021/03/06 02:44:09;;;;;;;2.80;1.55;;;3.30;48.90;;;;;;4862079;29;20113;-68
2021/03/06 02:46:36;;;;;;;3.13;2.35;;;3.30;48.80;;;;;;4860910;29;20127;-69
2021/03/06 02:49:03;;;;;;;2.22;2.00;;;3.30;48.90;;;;;;4860758;29;20040;-68
2021/03/06 02:51:39;;;;;;;1.65;1.42;;;3.20;48.80;;;;;;4861102;29;20170;-69
2021/03/06 02:54:06;;;;;;;1.73;1.60;;;3.20;48.80;;;;;;4861525;29;20037;-68
2021/03/06 02:56:34;;;;;;;4.78;1.90;;;3.20;48.80;;;;;;4876607;29;20038;-69
2021/03/06 02:59:06;;;;;;;2.42;1.80;;;3.20;48.80;;;;;;4861258;29;20415;-70
2021/03/06 03:01:54;;;;;;;2.88;1.90;;;3.10;48.80;;;;;;4861781;29;20045;-70
2021/03/06 03:04:43;;;;;;;4.25;1.85;;;3.10;48.80;;;;;;4861734;29;20037;-69
2021/03/06 03:07:27;;;;;;;5.57;2.42;;;3.10;48.80;;;;;;4861876;29;20040;-70
2021/03/06 03:09:59;;;;;;;3.75;2.17;;;3.10;48.80;;;;;;4860415;29;20060;-68
2021/03/06 03:12:32;;;;;;;3.80;2.35;;;3.10;49.50;;;;;;4861173;29;20049;-69
2021/03/06 03:15:18;;;;;;;5.03;2.60;;;3.00;48.80;;;;;;4875933;29;20041;-69
2021/03/06 03:17:47;;;;;;;5.47;2.78;;;3.00;48.80;;;;;;4860330;29;20124;-68
2021/03/06 03:20:38;;;;;;;4.75;2.40;;;3.00;48.80;;;;;;4859442;29;20050;-69
2021/03/06 03:23:28;;;;;;;5.43;2.55;;;3.00;48.80;;;;;;4839545;29;20038;-68
2021/03/06 03:25:57;;;;;;;3.50;2.22;;;3.00;48.80;;;;;;4860882;29;20460;-69
2021/03/06 03:28:25;;;;;;;4.90;2.63;;;3.00;48.80;;;;;;4860576;29;20053;-68
2021/03/06 03:30:52;;;;;;;4.85;2.28;;;2.90;48.70;;;;;;4845166;29;20060;-72
2021/03/06 03:33:19;;;;;;;4.90;2.50;;;2.90;49.30;;;;;;4829944;29;20037;-71
2021/03/06 03:35:46;;;;;;;4.53;2.50;;;2.90;48.70;;;;;;4845159;29;20037;-70
2021/03/06 03:38:12;;;;;;;6.38;2.60;;;2.90;48.80;;;;;;4845395;29;20117;-69
2021/03/06 03:40:38;;;;;;;5.38;2.60;;;2.90;48.80;;;;;;4859470;29;20052;-70
2021/03/06 03:43:05;;;;;;;5.28;3.20;;;2.80;48.70;;;;;;4874987;29;20498;-71
2021/03/06 03:45:32;;;;;;;8.30;2.72;;;2.80;48.80;;;;;;4861522;29;20046;-69
2021/03/06 03:48:00;;;;;;;4.93;2.10;;;2.80;48.80;;;;;;4860019;29;20061;-69
2021/03/06 03:50:27;;;;;;;6.35;2.80;;;2.80;48.80;;;;;;4860556;29;20038;-69
2021/03/06 03:52:53;;;;;;;7.82;2.60;;;2.80;48.80;;;;;;4861189;29;20045;-68
2021/03/06 03:55:20;;;;;;;3.88;2.45;;;2.80;48.80;;;;;;4860830;29;20041;-68
2021/03/06 03:57:47;;;;;;;4.85;2.85;;;2.80;48.90;;;;;;4861173;29;20046;-68
2021/03/06 04:00:19;;;;;;;3.40;2.67;;;2.80;48.90;;;;;;4860534;29;20045;-70
2021/03/06 04:02:48;;;;;;;3.75;2.40;;;2.80;48.90;;;;;;4860983;29;20517;-70
2021/03/06 04:05:15;;;;;;;5.05;3.13;;;2.70;48.80;;;;;;4861514;29;20046;-70
2021/03/06 04:07:44;;;;;;;4.47;2.80;;;2.70;48.90;;;;;;4861252;29;20037;-70
2021/03/06 04:10:13;;;;;;;4.88;2.72;;;2.70;48.90;;;;;;4876452;29;20109;-70
2021/03/06 04:12:43;;;;;;;5.40;2.70;;;2.70;48.90;;;;;;4860607;29;20491;-70
2021/03/06 04:15:11;;;;;;;3.65;2.72;;;2.70;48.90;;;;;;4860635;29;20490;-69
2021/03/06 04:17:37;;;;;;;7.35;2.85;;;2.70;48.90;;;;;;4847422;29;20097;-70
2021/03/06 04:20:05;;;;;;;3.75;2.30;;;2.70;48.90;;;;;;4864192;29;20494;-71
2021/03/06 04:22:31;;;;;;;5.25;2.42;;;2.70;48.90;;;;;;4862391;29;20038;-70
2021/03/06 04:24:57;;;;;;;5.45;2.63;;;2.70;48.90;;;;;;4864473;29;20128;-70
2021/03/06 04:27:23;;;;;;;5.47;2.42;;;2.70;48.90;;;;;;4865199;29;20044;-70
2021/03/06 04:29:49;;;;;;;4.18;2.70;;;2.70;48.90;;;;;;4864081;29;20042;-70
2021/03/06 04:32:15;;;;;;;5.53;2.65;;;2.70;48.90;;;;;;4863511;29;20072;-70
2021/03/06 04:34:43;;;;;;;3.97;2.83;;;2.60;48.90;;;;;;4879347;29;20049;-69
2021/03/06 04:37:09;;;;;;;4.47;2.90;;;2.70;48.90;;;;;;4863210;29;20517;-70
2021/03/06 04:39:35;;;;;;;5.15;2.88;;;2.60;48.80;;;;;;4864517;29;20070;-70
2021/03/06 04:42:01;;;;;;;4.00;2.40;;;2.70;48.90;;;;;;4863967;29;20041;-69
2021/03/06 04:44:27;;;;;;;5.57;2.95;;;2.60;48.80;;;;;;4864006;29;20044;-69
2021/03/06 04:46:53;;;;;;;5.85;3.08;;;2.60;48.80;;;;;;4863839;29;20045;-69
2021/03/06 04:49:19;;;;;;;4.80;2.80;;;2.70;48.90;;;;;;4865219;29;20093;-69
2021/03/06 04:51:45;;;;;;;6.22;3.20;;;2.60;48.90;;;;;;4863811;29;20124;-70
2021/03/06 04:54:12;;;;;;;4.78;3.47;;;2.60;49.40;;;;;;4864038;29;20037;-70
2021/03/06 04:56:38;;;;;;;5.45;2.97;;;2.70;48.90;;;;;;4864175;29;20061;-69
2021/03/06 04:59:04;;;;;;;5.75;3.53;;;2.70;48.90;;;;;;4863701;29;20084;-68
2021/03/06 05:01:30;;;;;;;4.78;3.08;;;2.70;48.90;;;;;;4862670;29;20102;-70
2021/03/06 05:03:56;;;;;;;6.38;3.55;;;2.70;48.90;;;;;;4863801;29;20050;-70
2021/03/06 05:06:22;;;;;;;5.90;3.40;;;2.70;48.90;;;;;;4862953;29;20041;-70
2021/03/06 05:08:47;;;;;;;4.72;3.40;;;2.70;48.90;;;;;;4862421;29;20041;-70
2021/03/06 05:11:13;;;;;;;6.78;3.95;;;2.70;48.90;;;;;;4847470;29;20034;-71
2021/03/06 05:13:39;;;;;;;5.35;3.30;;;2.70;48.80;;;;;;4848651;29;20052;-71
2021/03/06 05:16:06;;;;;;;5.50;3.33;;;2.70;48.90;;;;;;4864956;29;20071;-69
2021/03/06 05:18:32;;;;;;;4.18;3.22;;;2.80;48.90;;;;;;4863139;29;20041;-71
2021/03/06 05:20:59;;;;;;;6.53;4.22;;;2.80;48.90;;;;;;4871525;29;20066;-69
2021/03/06 05:23:28;;;;;;;5.57;3.53;;;2.80;48.90;;;;;;4860859;29;20510;-71
2021/03/06 05:25:54;;;;;;;4.50;3.53;;;2.80;48.80;;;;;;4862755;29;20084;-72
2021/03/06 05:28:21;;;;;;;4.93;3.55;;;2.80;48.80;;;;;;4867403;29;20044;-70
2021/03/06 05:30:48;;;;;;;7.25;4.00;;;2.80;48.80;;;;;;4851553;29;20069;-71
2021/03/06 05:33:15;;;;;;;7.80;4.50;;;2.90;48.90;;;;;;4867289;29;20042;-74
2021/03/06 05:35:42;;;;;;;6.75;4.00;;;3.00;48.90;;;;;;4866453;29;20101;-74
2021/03/06 05:38:09;;;;;;;7.32;4.70;;;3.20;48.90;;;;;;4850346;29;20135;-72
2021/03/06 05:40:40;;;;;;;5.57;4.03;;;3.50;48.90;;;;;;4866236;29;20048;-70
2021/03/06 05:43:07;;;;;;;8.60;4.85;;;3.90;48.60;;;;;;4881297;29;20037;-70
2021/03/06 05:45:33;;;;;;;6.82;4.18;;;4.20;48.10;;;;;;4866397;29;20041;-71
2021/03/06 05:48:01;;;;;;;9.05;4.72;;;4.50;47.80;;;;;;4865662;29;20047;-72
2021/03/06 05:50:29;;;;;;;10.02;4.78;;;4.90;47.50;;;;;;4865751;29;20041;-72
2021/03/06 05:52:59;;;;;;;6.97;4.82;;;5.20;47.20;;;;;;4863321;29;20124;-72
2021/03/06 05:55:27;;;;;;;7.78;5.00;;;5.50;46.80;;;;;;4867221;29;20065;-72
2021/03/06 05:57:54;;;;;;;7.05;4.90;;;5.80;46.00;;;;;;4867914;29;20337;-71
2021/03/06 06:00:21;;;;;;;6.05;4.35;;;6.20;46.20;;;;;;4867334;29;20053;-72
2021/03/06 06:02:48;;;;;;;7.72;5.28;;;6.60;45.50;;;;;;4866271;29;20048;-72
2021/03/06 06:05:18;;;;;;;8.13;5.28;;;7.10;45.00;;;;;;4865093;29;20037;-73
2021/03/06 06:07:44;;;;;;;8.68;5.82;;;7.60;44.20;;;;;;4864046;29;20079;-71
2021/03/06 06:10:11;;;;;;;8.55;4.88;;;8.00;43.70;;;;;;4875710;29;20053;-73
2021/03/06 06:12:40;;;;;;;6.75;4.30;;;8.50;45.50;;;;;;4865712;29;20422;-72
2021/03/06 06:15:08;;;;;;;8.35;5.05;;;9.00;45.90;;;;;;4863428;29;20094;-74
2021/03/06 06:17:34;;;;;;;8.02;5.35;;;9.50;45.80;;;;;;4852223;29;20066;-74
2021/03/06 06:20:00;;;;;;;9.73;5.18;;;9.90;45.20;;;;;;4849816;29;20145;-74
2021/03/06 06:22:27;;;;;;;7.22;4.88;;;10.30;44.70;;;;;;4867003;29;20519;-74
2021/03/06 06:24:54;;;;;;;7.13;5.22;;;10.70;44.30;;;;;;4866951;29;20041;-74
2021/03/06 06:27:29;;;;;;;11.27;5.90;;;11.10;43.90;;;;;;4858846;29;20037;-76
2021/03/06 06:29:56;;;;;;;10.27;5.82;;;11.40;43.10;;;;;;4865296;29;20112;-75
2021/03/06 06:32:28;;;;;;;10.40;6.20;;;11.80;42.80;;;;;;4868903;29;20053;-77
2021/03/06 06:35:03;;;;;;;11.02;6.38;;;12.10;42.40;;;;;;4869308;29;20038;-79
2021/03/06 06:37:30;;;;;;;9.30;6.35;;;12.50;42.10;;;;;;4852957;29;20022;-80
2021/03/06 06:39:57;;;;;;;10.15;6.20;;;12.80;42.00;;;;;;4867540;29;20049;-72
2021/03/06 06:42:41;;;;;;;10.38;6.43;;;13.10;42.30;;;;;;4869328;29;20394;-81
2021/03/06 06:45:08;;;;;;;12.45;6.35;;;13.00;38.60;;;;;;4854434;29;20062;-86
2021/03/06 06:47:39;;;;;;;9.93;7.03;;;12.60;37.70;;;;;;4875833;29;20102;-76
2021/03/06 06:50:07;;;;;;;10.73;6.00;;;12.50;37.50;;;;;;4868592;29;20049;-84
2021/03/06 06:52:43;;;;;;;9.90;6.93;;;12.30;36.30;;;;;;4869649;29;20049;-77
2021/03/06 06:55:11;;;;;;;9.30;6.60;;;12.20;35.60;;;;;;4868673;29;20041;-79
2021/03/06 06:57:48;;;;;;;11.52;6.68;;;12.10;35.60;;;;;;4847791;29;20056;-77
2021/03/06 07:00:16;;;;;;;11.18;6.07;;;12.10;34.90;;;;;;4870230;29;20049;-75
2021/03/06 07:03:00;;;;;;;7.10;5.78;;;12.20;35.20;;;;;;4868731;29;20052;-76
2021/03/06 07:05:38;;;;;;;8.40;5.55;;;12.20;34.30;;;;;;4882239;29;20072;-76
2021/03/06 07:08:19;;;;;;;10.25;5.65;;;12.20;34.40;;;;;;4846678;29;20038;-74
2021/03/06 07:10:46;;;;;;;8.65;5.72;;;12.10;34.10;;;;;;4869527;29;20049;-78
2021/03/06 07:13:12;;;;;;;6.60;4.65;;;12.20;34.80;;;;;;4853001;29;20034;-77
2021/03/06 07:15:39;;;;;;;7.22;4.43;;;12.20;34.20;;;;;;4851079;29;20046;-79
2021/03/06 07:18:16;;;;;;;7.18;4.47;;;12.10;34.30;;;;;;4853829;29;20525;-82
2021/03/06 07:20:43;;;;;;;5.70;4.25;;;11.70;33.90;;;;;;4861468;29;20045;-81
2021/03/06 07:23:17;;;;;;;7.75;4.13;;;11.90;34.50;;;;;;4869504;29;20045;-80
2021/03/06 07:25:44;;;;;;;5.07;3.77;;;12.00;34.20;;;;;;4855455;29;20041;-79
2021/03/06 07:28:10;;;;;;;4.43;3.42;;;12.00;33.70;;;;;;4851701;29;20057;-78
2021/03/06 07:30:37;;;;;;;6.40;3.25;;;12.10;34.10;;;;;;4868335;29;20129;-77
2021/03/06 07:33:07;;;;;;;4.78;3.05;;;12.20;34.60;;;;;;4851882;29;20065;-77
2021/03/06 07:35:36;;;;;;;5.05;2.78;;;12.20;34.40;;;;;;4838222;29;20048;-78
2021/03/06 07:38:06;;;;;;;4.18;3.28;;;12.20;34.70;;;;;;4837299;29;20430;-77
2021/03/06 07:40:36;;;;;;;4.32;2.70;;;12.30;34.40;;;;;;4868133;29;20109;-81
2021/03/06 07:43:27;;;;;;;5.38;2.95;;;12.40;34.50;;;;;;4838163;29;20483;-82
2021/03/06 07:45:55;;;;;;;3.70;2.80;;;12.50;33.90;;;;;;4837920;29;20068;-78
2021/03/06 07:48:26;;;;;;;3.17;2.55;;;12.50;33.10;;;;;;4868088;29;20041;-81
2021/03/06 07:50:53;;;;;;;3.28;2.22;;;12.30;32.70;;;;;;4839124;29;20392;-75
2021/03/06 07:53:20;;;;;;;5.72;2.50;;;12.30;33.00;;;;;;4864476;29;20056;-76
2021/03/06 07:55:47;;;;;;;5.72;3.10;;;12.30;32.80;;;;;;4854453;29;20215;-76
2021/03/06 07:58:18;;;;;;;6.10;2.15;;;12.10;33.10;;;;;;4867480;29;20074;-76
2021/03/06 08:00:55;;;;;;;2.97;2.13;;;11.90;32.60;;;;;;4867503;29;20049;-75
2021/03/06 08:03:30;;;;;;;3.42;1.90;;;11.60;33.30;;;;;;4883230;29;20038;-76
2021/03/06 08:06:21;;;;;;;2.80;2.35;;;11.30;33.10;;;;;;4844176;29;20525;-74
2021/03/06 08:08:47;;;;;;;4.47;2.65;;;10.80;33.30;;;;;;4847800;29;20057;-77
2021/03/06 08:11:19;;;;;;;3.95;2.40;;;10.50;33.60;;;;;;4843700;29;20049;-76
2021/03/06 08:13:53;;;;;;;3.65;2.60;;;10.20;34.10;;;;;;4867311;29;20030;-77
2021/03/06 08:18:55;;;;;;;2.72;2.53;;;9.50;35.80;;;;;;4854726;29;20048;-74
2021/03/06 08:21:37;;;;;;;3.47;2.80;;;9.70;38.40;;;;;;4860413;29;20495;-75
2021/03/06 08:24:15;;;;;;;5.68;2.75;;;9.80;38.40;;;;;;4860520;29;20122;-76
2021/03/06 08:26:42;;;;;;;4.13;2.83;;;9.90;38.20;;;;;;4838824;29;20102;-75
2021/03/06 08:29:23;;;;;;;6.40;2.58;;;10.00;38.10;;;;;;4843614;29;20502;-74
2021/03/06 08:32:02;;;;;;;4.93;2.60;;;10.10;38.60;;;;;;4856662;29;20144;-74
2021/03/06 08:34:55;;;;;;;5.55;3.05;;;10.10;39.40;;;;;;4839081;29;20061;-74
2021/03/06 08:37:21;;;;;;;3.92;3.10;;;10.30;39.10;;;;;;4855359;29;20030;-74
2021/03/06 08:40:09;;;;;;;7.65;2.60;;;10.20;39.30;;;;;;4840964;29;20045;-75
2021/03/06 08:42:55;;;;;;;4.70;2.70;;;9.90;39.10;;;;;;4839308;29;20034;-77
2021/03/06 08:45:27;;;;;;;7.38;3.17;;;9.70;39.00;;;;;;4837416;29;20400;-82
2021/03/06 08:48:01;;;;;;;6.80;2.83;;;9.20;38.90;;;;;;4819382;29;20089;-80
2021/03/06 08:50:29;;;;;;;6.55;3.30;;;9.10;39.80;;;;;;4833677;29;20044;-79
2021/03/06 08:53:01;;;;;;;4.25;3.40;;;8.90;38.80;;;;;;4840119;29;20037;-79
2021/03/06 08:55:32;;;;;;;5.00;3.00;;;8.70;39.40;;;;;;4839878;29;20132;-79
2021/03/06 08:58:06;;;;;;;4.68;2.60;;;8.70;40.30;;;;;;4840225;29;20479;-80
2021/03/06 09:00:44;;;;;;;3.42;2.50;;;8.60;41.00;;;;;;4824826;29;20133;-79
2021/03/06 09:03:15;;;;;;;4.53;2.47;;;8.50;41.50;;;;;;4842962;29;20045;-81
2021/03/06 09:05:46;;;;;;;4.15;2.40;;;8.50;41.70;;;;;;4828291;29;20060;-80
2021/03/06 09:08:12;;;;;;;3.80;2.50;;;8.40;41.90;;;;;;4858085;29;20038;-79
2021/03/06 09:10:43;;;;;;;4.68;2.75;;;8.40;42.00;;;;;;4842992;29;20495;-79
2021/03/06 09:13:14;;;;;;;5.43;3.00;;;8.40;41.60;;;;;;4827772;29;20499;-80
2021/03/06 09:15:52;;;;;;;4.15;3.00;;;8.20;41.10;;;;;;4827676;29;20041;-80
2021/03/06 09:18:23;;;;;;;3.03;2.70;;;8.20;41.70;;;;;;4858415;29;20034;-80
2021/03/06 09:20:57;;;;;;;4.18;3.10;;;8.20;41.80;;;;;;4842863;29;20045;-80
2021/03/06 09:23:33;;;;;;;4.05;2.47;;;8.00;42.40;;;;;;4842537;29;20044;-81
2021/03/06 09:26:03;;;;;;;3.58;3.03;;;8.10;43.20;;;;;;4842395;29;20046;-80
2021/03/06 09:28:31;;;;;;;3.28;2.75;;;8.00;43.10;;;;;;4844152;29;20516;-80
2021/03/06 09:30:59;;;;;;;3.78;2.58;;;7.90;43.20;;;;;;4844735;29;20052;-81
2021/03/06 09:33:26;;;;;;;3.88;2.88;;;7.90;43.00;;;;;;4862072;29;20088;-80
2021/03/06 09:36:02;;;;;;;9.05;2.72;;;7.80;42.50;;;;;;4860985;29;20137;-80
2021/03/06 09:38:28;;;;;;;3.90;2.80;;;7.90;43.10;;;;;;4876246;29;20537;-80
2021/03/06 09:40:55;;;;;;;8.27;3.20;;;8.00;43.20;;;;;;4860942;29;20049;-82
2021/03/06 09:43:36;;;;;;;3.30;2.80;;;8.10;43.30;;;;;;4860908;29;20040;-80
2021/03/06 09:46:11;;;;;;;3.03;2.47;;;8.10;42.70;;;;;;4876420;29;20033;-80
2021/03/06 09:48:37;;;;;;;2.90;2.35;;;8.20;43.00;;;;;;4845443;29;20140;-79
2021/03/06 09:51:03;;;;;;;3.90;2.75;;;8.10;42.20;;;;;;4860704;29;20049;-82
2021/03/06 09:53:29;;;;;;;4.15;3.33;;;8.20;42.40;;;;;;4860645;29;20499;-80
2021/03/06 09:56:07;;;;;;;5.15;2.90;;;8.00;42.00;;;;;;4861095;29;20555;-80
2021/03/06 09:58:33;;;;;;;3.97;2.95;;;7.80;42.10;;;;;;4876068;29;20037;-81
2021/03/06 10:01:20;;;;;;;4.38;3.03;;;7.80;42.60;;;;;;4861695;29;20041;-81
2021/03/06 10:03:48;;;;;;;4.45;2.75;;;7.60;42.60;;;;;;4860721;29;20045;-81
2021/03/06 10:06:18;;;;;;;4.97;2.90;;;7.70;43.00;;;;;;4860603;29;20055;-81
2021/03/06 10:08:56;;;;;;;5.18;2.95;;;7.60;42.30;;;;;;4861685;29;20039;-82
2021/03/06 10:11:52;;;;;;;5.90;2.60;;;7.60;42.50;;;;;;4845289;29;20038;-81
2021/03/06 10:14:24;;;;;;;4.03;2.42;;;7.60;42.50;;;;;;4841201;29;20113;-82
2021/03/06 10:16:53;;;;;;;4.13;2.08;;;7.50;42.30;;;;;;4861739;29;20037;-81
2021/03/06 10:19:21;;;;;;;4.93;2.25;;;7.60;42.30;;;;;;4861915;29;20077;-81
2021/03/06 10:21:59;;;;;;;3.65;2.10;;;7.60;42.20;;;;;;4860104;29;20459;-81
2021/03/06 10:24:25;;;;;;;5.55;2.17;;;7.60;42.30;;;;;;4860772;29;20041;-80
2021/03/06 10:27:02;;;;;;;4.10;2.47;;;7.40;41.50;;;;;;4862010;29;20122;-81
2021/03/06 10:29:29;;;;;;;3.15;2.30;;;7.40;41.90;;;;;;4875570;29;20078;-80
2021/03/06 10:31:58;;;;;;;2.63;2.40;;;7.40;42.50;;;;;;4862649;29;20097;-83
2021/03/06 10:34:27;;;;;;;3.65;2.65;;;7.40;42.60;;;;;;4865686;29;20041;-80
2021/03/06 10:37:16;;;;;;;2.65;2.45;;;7.50;42.30;;;;;;4849966;29;20038;-77
2021/03/06 10:40:03;;;;;;;3.63;2.33;;;7.40;41.60;;;;;;4863273;29;20045;-79
2021/03/06 10:42:50;;;;;;;3.25;2.28;;;7.40;41.40;;;;;;4847427;29;20098;-79
2021/03/06 10:45:30;;;;;;;3.33;2.35;;;7.40;41.60;;;;;;4864860;29;20487;-85
2021/03/06 10:48:02;;;;;;;3.47;2.10;;;7.50;43.60;;;;;;4860837;29;20507;-72
2021/03/06 10:50:31;;;;;;;5.35;2.33;;;7.80;44.80;;;;;;4844910;29;20083;-77
2021/03/06 10:53:13;;;;;;;3.90;2.17;;;8.00;45.10;;;;;;4860904;29;20552;-82
2021/03/06 10:55:39;;;;;;;2.47;2.28;;;8.20;45.40;;;;;;4859985;29;20147;-76
2021/03/06 10:58:06;;;;;;;4.57;2.13;;;8.30;45.30;;;;;;4859397;29;20045;-78
2021/03/06 11:00:32;;;;;;;3.00;2.30;;;8.40;45.70;;;;;;4860725;29;20148;-73
2021/03/06 11:03:03;;;;;;;3.08;2.38;;;8.50;45.80;;;;;;4860726;29;20046;-75
2021/03/06 11:05:30;;;;;;;6.03;2.72;;;8.60;45.00;;;;;;4844424;29;20443;-77
2021/03/06 11:07:59;;;;;;;3.58;2.40;;;8.60;44.00;;;;;;4848688;29;20491;-74
2021/03/06 11:10:29;;;;;;;4.85;2.58;;;8.60;43.30;;;;;;4842049;29;20049;-78
2021/03/06 11:12:57;;;;;;;4.07;2.72;;;8.60;42.70;;;;;;4825557;29;20121;-77
2021/03/06 11:15:25;;;;;;;4.00;2.80;;;8.50;42.20;;;;;;4840770;29;20388;-75
2021/03/06 11:17:55;;;;;;;3.45;2.20;;;8.40;41.80;;;;;;4841120;29;20038;-74
2021/03/06 11:20:26;;;;;;;5.22;2.70;;;8.40;41.80;;;;;;4842171;29;20122;-75
2021/03/06 11:22:52;;;;;;;4.70;2.70;;;8.30;41.70;;;;;;4841971;29;20072;-73
2021/03/06 11:25:20;;;;;;;3.05;2.30;;;8.30;41.50;;;;;;4839932;29;20065;-74
2021/03/06 11:27:47;;;;;;;3.10;2.28;;;8.30;41.20;;;;;;4840116;29;20069;-73
2021/03/06 11:30:16;;;;;;;2.50;2.10;;;8.30;41.20;;;;;;4856225;29;20571;-73
2021/03/06 11:32:44;;;;;;;3.33;1.98;;;8.30;41.20;;;;;;4822361;29;20466;-73
2021/03/06 11:35:11;;;;;;;4.47;2.33;;;8.30;41.20;;;;;;4822474;29;20038;-72
2021/03/06 11:37:37;;;;;;;2.78;1.98;;;8.20;40.90;;;;;;4823862;29;20058;-75
2021/03/06 11:40:05;;;;;;;3.00;2.13;;;8.20;40.70;;;;;;4822414;29;20046;-74
2021/03/06 11:42:31;;;;;;;2.85;1.92;;;8.20;40.60;;;;;;4807157;29;20478;-73
2021/03/06 11:44:57;;;;;;;2.05;1.83;;;8.20;40.40;;;;;;4823513;29;20129;-81
2021/03/06 11:47:23;;;;;;;2.20;2.00;;;8.20;40.20;;;;;;4824396;29;20061;-79
2021/03/06 11:49:49;;;;;;;2.92;1.75;;;8.20;40.30;;;;;;4838409;29;20495;-80
2021/03/06 11:52:15;;;;;;;2.03;1.85;;;8.20;40.00;;;;;;4838107;29;20056;-77
2021/03/06 11:54:41;;;;;;;2.03;1.55;;;8.20;39.90;;;;;;4824347;29;20073;-75
2021/03/06 11:57:07;;;;;;;1.73;1.50;;;8.10;39.50;;;;;;4837655;29;20038;-77
2021/03/06 11:59:34;;;;;;;2.83;1.67;;;8.10;40.30;;;;;;4824065;29;20488;-75
2021/03/06 12:02:00;;;;;;;2.50;1.63;;;8.10;41.40;;;;;;4823482;29;20520;-78
2021/03/06 12:04:25;;;;;;;4.72;1.83;;;8.10;41.40;;;;;;4822823;29;20064;-76
2021/03/06 12:06:51;;;;;;;2.13;1.88;;;8.10;40.50;;;;;;4823148;29;20475;-74
2021/03/06 12:09:17;;;;;;;3.50;1.92;;;8.10;40.20;;;;;;4824561;29;20413;-74
2021/03/06 12:11:43;;;;;;;1.90;1.60;;;8.10;39.80;;;;;;4822896;29;20050;-74
2021/03/06 12:14:09;;;;;;;2.08;1.60;;;8.00;40.00;;;;;;4824819;29;20050;-76
2021/03/06 12:16:36;;;;;;;2.38;1.70;;;8.00;40.40;;;;;;4824377;29;20058;-79
2021/03/06 12:19:03;;;;;;;3.08;1.65;;;8.00;41.80;;;;;;4806898;29;20054;-79
2021/03/06 12:21:29;;;;;;;2.33;1.92;;;8.00;41.70;;;;;;4823311;29;20433;-81
2021/03/06 12:23:56;;;;;;;2.30;1.50;;;8.00;41.50;;;;;;4810888;29;20420;-80
2021/03/06 12:26:22;;;;;;;3.53;1.83;;;8.00;41.20;;;;;;4826450;29;20523;-80
2021/03/06 12:28:48;;;;;;;2.00;1.80;;;8.10;41.10;;;;;;4826605;29;20083;-82
2021/03/06 12:31:14;;;;;;;2.67;1.67;;;8.00;41.00;;;;;;4832064;29;20430;-79
2021/03/06 12:33:40;;;;;;;6.40;2.00;;;8.00;40.70;;;;;;4843448;29;20048;-78
2021/03/06 12:36:07;;;;;;;3.10;2.42;;;8.00;40.70;;;;;;4843171;29;20114;-77
2021/03/06 12:38:33;;;;;;;3.08;1.83;;;8.00;40.60;;;;;;4864749;29;20034;-78
2021/03/06 12:40:59;;;;;;;2.20;1.95;;;8.00;40.50;;;;;;4865457;29;20049;-79
2021/03/06 12:43:25;;;;;;;2.10;1.80;;;8.00;40.50;;;;;;4864546;29;20089;-74
2021/03/06 12:45:51;;;;;;;4.07;2.05;;;8.10;40.60;;;;;;4847522;29;20037;-77
2021/03/06 12:48:17;;;;;;;4.40;1.92;;;8.10;40.50;;;;;;4863765;29;20041;-82
2021/03/06 12:50:43;;;;;;;2.97;2.05;;;8.00;40.50;;;;;;4865703;29;20041;-77
2021/03/06 12:53:09;;;;;;;3.88;2.20;;;8.00;40.60;;;;;;4848578;29;20101;-79
2021/03/06 12:55:38;;;;;;;2.40;2.20;;;8.00;40.70;;;;;;4865252;29;20041;-76
2021/03/06 12:58:04;;;;;;;3.67;2.47;;;7.90;40.90;;;;;;4863960;29;20178;-79
2021/03/06 13:00:31;;;;;;;3.13;2.17;;;7.90;41.10;;;;;;4864307;29;20041;-77
2021/03/06 13:02:57;;;;;;;2.78;2.22;;;7.80;41.40;;;;;;4862753;29;20040;-73
2021/03/06 13:05:25;;;;;;;5.15;2.25;;;7.80;41.60;;;;;;4863121;29;20197;-79
2021/03/06 13:07:53;;;;;;;3.10;2.13;;;7.80;43.10;;;;;;4862705;29;20037;-74
2021/03/06 13:10:20;;;;;;;6.63;2.38;;;7.80;44.20;;;;;;4861866;29;20184;-75